createdAt,value
2023-03-05T00:01:35.366Z,1.20
2023-03-05T00:04:12.685Z,1.10
2023-03-05T00:06:45.523Z,1.20
2023-03-05T00:11:50.235Z,1.20
2023-03-05T00:14:22.373Z,1.20
2023-03-05T00:16:55.071Z,1.30
2023-03-05T00:19:26.975Z,1.30
2023-03-05T00:24:32.062Z,1.30
2023-03-05T00:27:05.337Z,1.30
2023-03-05T00:29:37.655Z,1.30
2023-03-05T00:32:32.692Z,1.30
2023-03-05T00:35:05.545Z,1.40
2023-03-05T00:37:40.564Z,1.40
2023-03-05T00:40:13.195Z,1.50
2023-03-05T00:42:45.483Z,1.60
2023-03-05T00:45:18.310Z,1.70
2023-03-05T00:47:51.346Z,1.70
2023-03-05T00:50:23.711Z,1.60
2023-03-05T00:52:56.069Z,1.60
2023-03-05T00:58:22.389Z,1.50
2023-03-05T01:00:59.570Z,1.40
2023-03-05T01:03:34.705Z,1.40
2023-03-05T01:09:05.074Z,1.40
2023-03-05T01:11:37.002Z,1.20
2023-03-05T01:14:09.914Z,1.20
2023-03-05T01:16:41.842Z,1.00
2023-03-05T01:19:16.947Z,1.00
2023-03-05T01:24:22.681Z,0.80
2023-03-05T01:29:46.675Z,0.60
2023-03-05T01:32:19.442Z,0.60
2023-03-05T01:35:22.722Z,0.60
2023-03-05T01:37:56.092Z,0.70
2023-03-05T01:40:31.227Z,0.70
2023-03-05T01:43:12.242Z,0.80
2023-03-05T01:46:23.793Z,0.90
2023-03-05T01:49:10.419Z,0.90
2023-03-05T01:51:49.468Z,0.90
2023-03-05T01:54:26.348Z,0.80
2023-03-05T01:57:25.913Z,1.10
2023-03-05T02:00:05.473Z,1.20
2023-03-05T02:02:48.198Z,1.20
2023-03-05T02:05:28.042Z,1.20
2023-03-05T02:08:04.220Z,1.10
2023-03-05T02:11:00.355Z,1.00
2023-03-05T02:13:38.741Z,1.00
2023-03-05T02:16:11.218Z,1.10
2023-03-05T02:18:43.642Z,1.00
2023-03-05T02:21:28.733Z,1.00
2023-03-05T02:26:54.638Z,1.10
2023-03-05T02:29:29.831Z,1.00
2023-03-05T02:32:02.360Z,1.00
2023-03-05T02:37:10.638Z,0.90
2023-03-05T02:39:44.399Z,0.90
2023-03-05T02:42:16.774Z,0.80
2023-03-05T02:44:49.135Z,0.70
2023-03-05T02:47:21.550Z,0.60
2023-03-05T02:49:55.565Z,0.60
2023-03-05T02:52:29.821Z,0.60
2023-03-05T02:55:02.562Z,0.50
2023-03-05T02:57:36.089Z,0.50
2023-03-05T03:00:09.153Z,0.50
2023-03-05T03:02:42.692Z,0.50
2023-03-05T03:05:14.685Z,0.50
2023-03-05T03:07:47.400Z,0.70
2023-03-05T03:10:19.702Z,0.70
2023-03-05T03:12:51.610Z,0.70
2023-03-05T03:15:24.411Z,0.70
2023-03-05T03:17:56.590Z,0.70
2023-03-05T03:20:29.331Z,0.60
2023-03-05T03:23:01.871Z,0.60
2023-03-05T03:25:35.327Z,0.60
2023-03-05T03:28:07.182Z,0.60
2023-03-05T03:31:01.695Z,0.60
2023-03-05T03:33:33.606Z,0.60
2023-03-05T03:36:06.974Z,0.60
2023-03-05T03:38:39.315Z,0.60
2023-03-05T03:41:12.099Z,0.60
2023-03-05T03:43:44.429Z,0.60
2023-03-05T03:48:52.689Z,0.60
2023-03-05T03:51:26.370Z,0.50
2023-03-05T03:53:59.514Z,0.50
2023-03-05T03:56:32.230Z,0.40
2023-03-05T03:59:04.388Z,0.40
2023-03-05T04:01:37.419Z,0.30
2023-03-05T04:04:12.744Z,0.30
2023-03-05T04:09:17.894Z,0.50
2023-03-05T04:11:49.780Z,0.50
2023-03-05T04:14:22.090Z,0.50
2023-03-05T04:16:54.596Z,0.60
2023-03-05T04:19:28.296Z,0.60
2023-03-05T04:22:00.987Z,0.70
2023-03-05T04:24:33.052Z,0.70
2023-03-05T04:27:06.847Z,0.70
2023-03-05T04:29:41.652Z,0.60
2023-03-05T04:32:15.111Z,0.60
2023-03-05T04:34:48.066Z,0.70
2023-03-05T04:37:20.368Z,0.70
2023-03-05T04:39:53.615Z,0.60
2023-03-05T04:42:25.939Z,0.60
2023-03-05T04:50:06.360Z,0.70
2023-03-05T04:52:45.503Z,0.80
2023-03-05T04:55:18.644Z,0.90
2023-03-05T04:57:50.506Z,0.90
2023-03-05T05:00:23.447Z,3.60
2023-03-05T05:02:59.155Z,3.50
2023-03-05T05:05:31.059Z,1.40
2023-03-05T05:11:07.489Z,1.10
2023-03-05T05:13:39.546Z,1.10
2023-03-05T05:16:12.204Z,1.10
2023-03-05T05:18:44.193Z,1.20
2023-03-05T05:21:38.973Z,1.20
2023-03-05T05:26:43.978Z,1.20
2023-03-05T05:29:15.860Z,1.20
2023-03-05T05:31:48.730Z,1.30
2023-03-05T05:34:20.721Z,1.30
2023-03-05T05:36:53.825Z,1.40
2023-03-05T05:39:26.137Z,1.40
2023-03-05T05:41:57.977Z,1.50
2023-03-05T05:44:31.696Z,1.40
2023-03-05T05:47:03.614Z,1.40
2023-03-05T05:49:36.309Z,1.50
2023-03-05T05:52:09.458Z,1.60
2023-03-05T05:54:41.764Z,1.60
2023-03-05T05:57:14.128Z,1.50
2023-03-05T05:59:46.961Z,1.50
2023-03-05T06:02:19.301Z,1.60
2023-03-05T06:07:24.319Z,1.40
2023-03-05T06:12:29.362Z,1.40
2023-03-05T06:15:01.847Z,1.50
2023-03-05T06:17:33.828Z,1.40
2023-03-05T06:20:07.625Z,1.40
2023-03-05T06:22:40.260Z,1.50
2023-03-05T06:25:13.184Z,1.60
2023-03-05T06:27:45.625Z,1.60
2023-03-05T06:30:18.336Z,1.60
2023-03-05T06:32:50.601Z,1.80
2023-03-05T06:35:22.525Z,1.80
2023-03-05T06:37:55.556Z,1.80
2023-03-05T06:43:00.498Z,1.90
2023-03-05T06:45:32.558Z,1.90
2023-03-05T06:48:05.415Z,2.10
2023-03-05T06:53:10.535Z,2.30
2023-03-05T06:55:42.829Z,2.20
2023-03-05T07:00:48.180Z,2.30
2023-03-05T07:05:53.137Z,2.40
2023-03-05T07:08:25.039Z,2.40
2023-03-05T07:10:57.927Z,2.40
2023-03-05T07:13:30.436Z,2.40
2023-03-05T07:16:07.872Z,5.10
2023-03-05T07:18:40.600Z,5.10
2023-03-05T07:21:19.206Z,3.80
2023-03-05T07:23:55.035Z,3.40
2023-03-05T07:26:28.445Z,3.20
2023-03-05T07:31:55.569Z,2.80
2023-03-05T07:34:28.249Z,2.80
2023-03-05T07:37:00.716Z,2.80
2023-03-05T07:42:05.375Z,2.50
2023-03-05T07:44:54.094Z,2.50
2023-03-05T07:47:26.507Z,2.50
2023-03-05T07:49:58.519Z,2.60
2023-03-05T07:52:31.613Z,2.70
2023-03-05T07:55:03.668Z,2.60
2023-03-05T07:57:38.520Z,2.70
2023-03-05T08:00:11.251Z,2.80
2023-03-05T08:02:44.231Z,2.90
2023-03-05T08:07:49.462Z,2.80
2023-03-05T08:10:21.968Z,2.90
2023-03-05T08:12:53.913Z,3.10
2023-03-05T08:15:26.681Z,3.30
2023-03-05T08:20:37.475Z,3.60
2023-03-05T08:23:09.345Z,3.70
2023-03-05T08:28:14.460Z,3.80
2023-03-05T08:30:49.399Z,3.70
2023-03-05T08:33:21.657Z,3.80
2023-03-05T08:35:53.555Z,3.70
2023-03-05T08:41:20.475Z,3.80
2023-03-05T08:43:53.877Z,3.70
2023-03-05T08:46:26.633Z,3.90
2023-03-05T08:51:51.462Z,4.20
2023-03-05T08:54:23.342Z,4.20
2023-03-05T08:56:56.073Z,4.10
2023-03-05T08:59:28.379Z,4.10
2023-03-05T09:02:02.451Z,4.30
2023-03-05T09:04:34.786Z,4.20
2023-03-05T09:07:06.855Z,4.40
2023-03-05T09:09:39.659Z,4.20
2023-03-05T09:12:13.310Z,4.30
2023-03-05T09:14:46.192Z,4.20
2023-03-05T09:17:18.472Z,4.40
2023-03-05T09:19:51.314Z,4.50
2023-03-05T09:24:56.334Z,4.70
2023-03-05T09:27:28.207Z,4.70
2023-03-05T09:30:00.921Z,4.80
2023-03-05T09:35:07.706Z,5.20
2023-03-05T09:37:40.269Z,5.10
2023-03-05T09:40:19.278Z,5.20
2023-03-05T09:43:28.640Z,5.20
2023-03-05T09:46:31.959Z,5.30
2023-03-05T09:49:56.699Z,5.40
2023-03-05T09:52:37.161Z,5.40
2023-03-05T09:55:33.513Z,5.30
2023-03-05T09:58:31.225Z,5.30
2023-03-05T10:01:30.062Z,5.30
2023-03-05T10:07:21.232Z,5.40
2023-03-05T10:10:02.399Z,5.40
2023-03-05T10:13:06.614Z,4.50
2023-03-05T10:15:54.578Z,5.40
2023-03-05T10:18:54.872Z,5.50
2023-03-05T10:21:57.198Z,5.60
2023-03-05T10:24:54.392Z,5.60
2023-03-05T10:27:55.705Z,5.80
2023-03-05T10:31:09.524Z,5.80
2023-03-05T10:34:00.549Z,5.80
2023-03-05T10:37:01.367Z,5.90
2023-03-05T10:40:12.876Z,6.10
2023-03-05T10:43:12.953Z,6.30
2023-03-05T10:45:52.010Z,6.40
2023-03-05T10:48:47.406Z,6.40
2023-03-05T10:51:21.189Z,6.40
2023-03-05T10:53:57.713Z,6.40
2023-03-05T10:56:31.807Z,6.50
2023-03-05T10:59:04.258Z,6.70
2023-03-05T11:01:37.439Z,6.90
2023-03-05T11:04:38.654Z,7.00
2023-03-05T11:07:33.421Z,7.00
2023-03-05T11:10:21.322Z,7.10
2023-03-05T11:12:54.452Z,7.00
2023-03-05T11:15:30.603Z,7.20
2023-03-05T11:18:21.267Z,7.40
2023-03-05T11:26:03.870Z,7.60
2023-03-05T11:28:55.487Z,7.60
2023-03-05T11:31:31.998Z,7.70
2023-03-05T11:34:19.022Z,7.80
2023-03-05T11:36:54.260Z,7.90
2023-03-05T11:39:28.266Z,7.90
2023-03-05T11:42:07.358Z,8.10
2023-03-05T11:44:55.811Z,8.20
2023-03-05T11:47:47.603Z,8.30
2023-03-05T11:50:27.310Z,8.20
2023-03-05T11:53:09.840Z,8.30
2023-03-05T11:56:03.229Z,8.30
2023-03-05T11:58:47.253Z,8.40
2023-03-05T12:01:25.772Z,8.60
2023-03-05T12:04:00.446Z,8.60
2023-03-05T12:06:47.280Z,8.60
2023-03-05T12:09:42.662Z,8.70
2023-03-05T12:12:36.229Z,8.60
2023-03-05T12:15:58.615Z,8.80
2023-03-05T12:19:09.305Z,9.70
2023-03-05T12:21:43.558Z,10.10
2023-03-05T12:24:27.447Z,9.40
2023-03-05T12:27:03.145Z,9.00
2023-03-05T12:29:49.343Z,8.70
2023-03-05T12:32:31.765Z,8.40
2023-03-05T12:35:22.769Z,8.50
2023-03-05T12:37:55.057Z,8.50
2023-03-05T12:40:33.705Z,8.50
2023-03-05T12:43:31.365Z,8.40
2023-03-05T12:46:26.711Z,8.40
2023-03-05T12:51:38.899Z,8.50
2023-03-05T12:54:42.313Z,8.30
2023-03-05T12:57:23.698Z,8.30
2023-03-05T13:00:21.927Z,8.30
2023-03-05T13:03:01.029Z,8.50
2023-03-05T13:05:38.139Z,8.60
2023-03-05T13:08:15.798Z,8.60
2023-03-05T13:11:03.935Z,8.80
2023-03-05T13:13:42.515Z,8.70
2023-03-05T13:16:29.666Z,8.80
2023-03-05T13:19:02.651Z,8.70
2023-03-05T13:21:35.698Z,8.60
2023-03-05T13:24:19.457Z,8.60
2023-03-05T13:26:51.766Z,8.60
2023-03-05T13:29:28.125Z,8.70
2023-03-05T13:32:25.929Z,8.60
2023-03-05T13:35:01.145Z,8.50
2023-03-05T13:37:37.909Z,8.60
2023-03-05T13:40:22.253Z,8.70
2023-03-05T13:42:56.119Z,8.70
2023-03-05T13:45:30.876Z,8.60
2023-03-05T13:48:07.101Z,8.60
2023-03-05T13:50:40.802Z,8.50
2023-03-05T13:53:23.324Z,8.60
2023-03-05T13:56:03.379Z,8.40
2023-03-05T13:58:57.886Z,8.40
2023-03-05T14:01:43.638Z,8.50
2023-03-05T14:07:06.519Z,8.50
2023-03-05T14:09:41.787Z,8.50
2023-03-05T14:12:42.672Z,8.60
2023-03-05T14:15:31.457Z,8.60
2023-03-05T14:18:19.281Z,8.60
2023-03-05T14:21:18.030Z,8.50
2023-03-05T14:23:57.776Z,8.50
2023-03-05T14:26:35.512Z,8.50
2023-03-05T14:32:01.054Z,8.40
2023-03-05T14:34:42.962Z,8.40
2023-03-05T14:37:38.290Z,8.20
2023-03-05T14:42:58.592Z,8.10
2023-03-05T14:45:38.535Z,8.10
2023-03-05T14:48:15.413Z,8.20
2023-03-05T14:50:57.279Z,8.10
2023-03-05T14:53:39.562Z,8.10
2023-03-05T14:56:24.458Z,8.20
2023-03-05T15:01:32.303Z,8.10
2023-03-05T15:06:40.225Z,8.10
2023-03-05T15:09:13.040Z,8.20
2023-03-05T15:11:45.950Z,8.20
2023-03-05T15:14:18.210Z,8.20
2023-03-05T15:19:22.957Z,8.10
2023-03-05T15:21:54.863Z,8.10
2023-03-05T15:24:27.138Z,8.10
2023-03-05T15:26:59.021Z,8.10
2023-03-05T15:29:31.287Z,8.10
2023-03-05T15:32:05.372Z,8.10
2023-03-05T15:34:38.104Z,8.00
2023-03-05T15:37:10.155Z,8.00
2023-03-05T15:39:42.481Z,8.00
2023-03-05T15:42:14.395Z,8.00
2023-03-05T15:44:46.778Z,7.90
2023-03-05T15:47:18.712Z,7.90
2023-03-05T15:52:23.452Z,7.80
2023-03-05T15:57:28.396Z,7.70
2023-03-05T16:02:33.772Z,7.60
2023-03-05T16:05:07.957Z,7.70
2023-03-05T16:07:44.324Z,7.60
2023-03-05T16:10:22.045Z,7.70
2023-03-05T16:13:04.043Z,7.60
2023-03-05T16:18:13.981Z,7.50
2023-03-05T16:20:46.426Z,7.50
2023-03-05T16:23:19.038Z,7.40
2023-03-05T16:28:23.830Z,7.30
2023-03-05T16:30:58.215Z,7.30
2023-03-05T16:33:30.158Z,7.30
2023-03-05T16:36:14.148Z,7.30
2023-03-05T16:38:47.295Z,7.30
2023-03-05T16:41:23.186Z,7.30
2023-03-05T16:43:57.056Z,7.20
2023-03-05T16:46:30.581Z,7.20
2023-03-05T16:49:02.906Z,7.20
2023-03-05T16:51:36.028Z,7.20
2023-03-05T16:54:10.075Z,7.10
2023-03-05T16:56:42.534Z,7.10
2023-03-05T17:01:47.148Z,7.00
2023-03-05T17:04:19.120Z,6.90
2023-03-05T17:09:24.555Z,6.90
2023-03-05T17:11:57.920Z,6.90
2023-03-05T17:14:29.917Z,6.80
2023-03-05T17:17:02.218Z,6.80
2023-03-05T17:19:34.202Z,8.50
2023-03-05T17:22:07.076Z,7.60
2023-03-05T17:24:42.602Z,7.10
2023-03-05T17:27:19.069Z,6.80
2023-03-05T17:32:23.728Z,6.50
2023-03-05T17:34:56.744Z,6.40
2023-03-05T17:37:29.006Z,6.40
2023-03-05T17:42:33.749Z,6.30
2023-03-05T17:45:07.040Z,6.30
2023-03-05T17:50:13.931Z,6.20
2023-03-05T17:52:46.805Z,6.00
2023-03-05T17:55:18.824Z,6.00
2023-03-05T17:57:51.930Z,6.00
2023-03-05T18:00:28.707Z,6.00
2023-03-05T18:03:01.428Z,6.00
2023-03-05T18:05:33.669Z,5.80
2023-03-05T18:10:38.411Z,5.70
2023-03-05T18:13:10.795Z,5.70
2023-03-05T18:18:19.896Z,5.50
2023-03-05T18:20:51.791Z,5.40
2023-03-05T18:23:24.125Z,5.30
2023-03-05T18:25:55.993Z,5.40
2023-03-05T18:31:01.769Z,5.30
2023-03-05T18:33:34.133Z,5.30
2023-03-05T18:36:06.879Z,5.30
2023-03-05T18:38:39.070Z,5.10
2023-03-05T18:41:31.772Z,5.10
2023-03-05T18:44:04.703Z,5.00
2023-03-05T18:46:36.643Z,4.90
2023-03-05T18:51:42.553Z,4.80
2023-03-05T18:54:14.942Z,4.60
2023-03-05T18:56:46.815Z,4.50
2023-03-05T18:59:19.171Z,4.40
2023-03-05T19:01:51.160Z,4.30
2023-03-05T19:04:23.542Z,4.30
2023-03-05T19:06:55.499Z,4.30
2023-03-05T19:09:45.408Z,4.20
2023-03-05T19:12:27.060Z,4.30
2023-03-05T19:15:00.041Z,4.30
2023-03-05T19:17:33.154Z,4.30
2023-03-05T19:22:40.423Z,4.30
2023-03-05T19:25:13.211Z,4.20
2023-03-05T19:27:45.136Z,4.20
2023-03-05T19:30:18.912Z,4.50
2023-03-05T19:32:50.878Z,4.20
2023-03-05T19:35:23.300Z,4.10
2023-03-05T19:37:55.283Z,4.10
2023-03-05T19:40:27.674Z,4.20
2023-03-05T19:42:59.634Z,4.20
2023-03-05T19:45:35.399Z,4.30
2023-03-05T19:48:07.518Z,4.40
2023-03-05T19:50:41.214Z,4.40
2023-03-05T19:53:13.101Z,4.30
2023-03-05T19:55:45.528Z,4.40
2023-03-05T20:00:50.125Z,4.50
2023-03-05T20:03:21.969Z,4.60
2023-03-05T20:05:54.410Z,4.60
2023-03-05T20:08:26.321Z,4.50
2023-03-05T20:10:58.806Z,4.40
2023-03-05T20:13:32.301Z,4.30
2023-03-05T20:16:06.480Z,4.40
2023-03-05T20:18:38.536Z,4.40
2023-03-05T20:21:11.199Z,4.50
2023-03-05T20:23:43.100Z,4.60
2023-03-05T20:26:15.464Z,4.60
2023-03-05T20:31:24.030Z,4.60
2023-03-05T20:33:56.353Z,4.70
2023-03-05T20:39:03.131Z,4.60
2023-03-05T20:41:39.012Z,4.60
2023-03-05T20:44:11.440Z,4.70
2023-03-05T20:46:53.719Z,4.70
2023-03-05T20:49:25.740Z,4.70
2023-03-05T20:51:58.182Z,4.60
2023-03-05T20:57:02.938Z,4.30
2023-03-05T20:59:34.879Z,4.40
2023-03-05T21:02:09.764Z,4.40
2023-03-05T21:04:41.727Z,4.40
2023-03-05T21:07:14.208Z,4.50
2023-03-05T21:12:18.915Z,4.50
2023-03-05T21:14:50.865Z,4.50
2023-03-05T21:17:23.240Z,4.60
2023-03-05T21:22:27.986Z,4.50
2023-03-05T21:25:20.759Z,4.50
2023-03-05T21:28:10.862Z,4.50
2023-03-05T21:30:49.707Z,4.40
2023-03-05T21:33:28.695Z,4.50
2023-03-05T21:36:00.657Z,4.40
2023-03-05T21:38:34.256Z,4.40
2023-03-05T21:41:06.149Z,4.40
2023-03-05T21:43:38.696Z,4.50
2023-03-05T21:46:11.161Z,4.50
2023-03-05T21:51:16.906Z,4.50
2023-03-05T21:53:50.762Z,4.50
2023-03-05T21:56:24.952Z,4.50
2023-03-05T21:58:57.487Z,4.50
2023-03-05T22:01:29.460Z,4.50
2023-03-05T22:06:35.470Z,4.40
2023-03-05T22:09:07.844Z,4.40
2023-03-05T22:11:42.711Z,4.40
2023-03-05T22:16:53.221Z,4.40
2023-03-05T22:19:25.647Z,4.40
2023-03-05T22:21:57.639Z,4.50
2023-03-05T22:24:30.010Z,4.50
2023-03-05T22:27:01.954Z,4.50
2023-03-05T22:29:34.446Z,4.40
2023-03-05T22:32:06.475Z,4.40
2023-03-05T22:34:38.821Z,4.40
2023-03-05T22:39:43.505Z,4.50
2023-03-05T22:42:15.382Z,4.50
2023-03-05T22:44:47.828Z,4.50
2023-03-05T22:47:19.740Z,5.50
2023-03-05T22:49:52.218Z,4.40
2023-03-05T22:52:24.153Z,4.30
2023-03-05T22:54:56.517Z,4.40
2023-03-05T22:57:28.953Z,4.30
2023-03-05T23:00:01.531Z,4.40
2023-03-05T23:02:33.480Z,4.40
2023-03-05T23:05:07.938Z,4.40
2023-03-05T23:07:42.140Z,4.40
2023-03-05T23:10:25.564Z,4.40
2023-03-05T23:13:00.535Z,4.40
2023-03-05T23:15:36.990Z,4.50
2023-03-05T23:18:08.962Z,4.50
2023-03-05T23:20:42.347Z,4.50
2023-03-05T23:23:14.220Z,4.50
2023-03-05T23:28:21.833Z,4.30
2023-03-05T23:30:54.274Z,4.30
2023-03-05T23:33:26.242Z,4.30
2023-03-05T23:36:00.757Z,4.30
2023-03-05T23:38:33.137Z,4.40
2023-03-05T23:41:09.581Z,4.30
2023-03-05T23:43:41.482Z,4.20
2023-03-05T23:46:13.850Z,4.20
2023-03-05T23:48:45.852Z,4.20
2023-03-05T23:51:18.307Z,4.30
2023-03-05T23:53:50.257Z,4.20
2023-03-05T23:56:22.621Z,4.20
